Time,TemperatureF,DewpointF,PressureIn,WindDirection,WindDirectionDegrees,WindSpeedMPH,WindSpeedGustMPH,Humidity,HourlyPrecipIn,Conditions,Clouds,dailyrainin,SoftwareType,DateUTC
2013-05-11 00:02:00,71.0,58.0,30.01,NNW,343,5.0,8.0,64,0.00,,,0.00,,2013-05-11 05:02:00,
2013-05-11 00:12:00,71.0,59.0,30.01,NNW,341,3.0,7.0,65,0.00,,,0.00,,2013-05-11 05:12:00,
2013-05-11 00:21:00,71.0,59.0,30.01,NNW,341,3.0,7.0,65,0.00,,,0.00,,2013-05-11 05:21:00,
2013-05-11 00:32:00,70.0,58.0,30.01,NNW,341,3.0,8.0,66,0.00,,,0.00,,2013-05-11 05:32:00,
2013-05-11 00:42:00,70.0,59.0,30.00,NNW,341,1.0,5.0,67,0.00,,,0.00,,2013-05-11 05:42:00,
2013-05-11 00:52:00,70.0,59.0,30.00,NNW,341,1.0,5.0,67,0.00,,,0.00,,2013-05-11 05:52:00,
2013-05-11 01:02:00,69.0,58.0,30.01,NNW,341,4.0,5.0,68,0.00,,,0.00,,2013-05-11 06:02:00,
2013-05-11 01:12:00,69.0,58.0,30.01,NNW,341,4.0,5.0,68,0.00,,,0.00,,2013-05-11 06:12:00,
2013-05-11 01:21:00,68.0,57.0,30.00,NNW,337,6.0,8.0,69,0.00,,,0.00,,2013-05-11 06:21:00,
2013-05-11 01:32:00,68.0,58.0,30.00,NNW,336,3.0,6.0,70,0.00,,,0.00,,2013-05-11 06:32:00,
2013-05-11 01:42:00,67.0,57.0,30.00,NNW,336,2.0,5.0,71,0.00,,,0.00,,2013-05-11 06:42:00,
2013-05-11 01:52:00,67.0,57.0,30.00,NNW,336,2.0,5.0,71,0.00,,,0.00,,2013-05-11 06:52:00,
2013-05-11 02:02:00,67.0,57.0,30.00,NNW,336,2.0,5.0,71,0.00,,,0.00,,2013-05-11 07:02:00,
2013-05-11 02:11:00,67.0,58.0,30.00,NNW,336,1.0,5.0,72,0.00,,,0.00,,2013-05-11 07:11:00,
2013-05-11 02:21:00,67.0,58.0,30.00,NNW,336,1.0,5.0,72,0.00,,,0.00,,2013-05-11 07:21:00,
2013-05-11 02:32:00,66.0,57.0,30.00,NNW,329,6.0,8.0,73,0.00,,,0.00,,2013-05-11 07:32:00,
2013-05-11 02:42:00,66.0,57.0,30.00,NNW,328,3.0,7.0,73,0.00,,,0.00,,2013-05-11 07:42:00,
2013-05-11 02:52:00,66.0,57.0,30.00,NNW,328,3.0,7.0,73,0.00,,,0.00,,2013-05-11 07:52:00,
2013-05-11 03:01:00,65.0,56.0,30.01,NNW,328,4.0,6.0,74,0.00,,,0.00,,2013-05-11 08:01:00,
2013-05-11 03:12:00,65.0,56.0,30.02,NNW,328,1.0,6.0,74,0.00,,,0.00,,2013-05-11 08:12:00,
2013-05-11 03:21:00,65.0,56.0,30.02,NNW,328,1.0,6.0,74,0.00,,,0.00,,2013-05-11 08:21:00,
2013-05-11 03:31:00,65.0,57.0,30.01,NNW,328,3.0,5.0,76,0.00,,,0.00,,2013-05-11 08:31:00,
2013-05-11 03:42:00,64.0,57.0,30.02,NNW,328,2.0,5.0,77,0.00,,,0.00,,2013-05-11 08:42:00,
2013-05-11 03:52:00,64.0,57.0,30.02,NNW,328,2.0,5.0,77,0.00,,,0.00,,2013-05-11 08:52:00,
2013-05-11 04:01:00,64.0,57.0,30.02,NNW,328,0.0,0.0,77,0.00,,,0.00,,2013-05-11 09:01:00,
2013-05-11 04:11:00,63.0,56.0,30.02,NNW,328,0.0,0.0,79,0.00,,,0.00,,2013-05-11 09:11:00,
2013-05-11 04:21:00,63.0,56.0,30.02,NNW,328,0.0,0.0,79,0.00,,,0.00,,2013-05-11 09:21:00,
2013-05-11 04:32:00,63.0,56.0,30.03,NNW,328,3.0,6.0,79,0.00,,,0.00,,2013-05-11 09:32:00,
2013-05-11 04:42:00,63.0,56.0,30.03,NNW,328,2.0,5.0,79,0.00,,,0.00,,2013-05-11 09:42:00,
2013-05-11 04:52:00,63.0,56.0,30.03,NNW,328,2.0,5.0,79,0.00,,,0.00,,2013-05-11 09:52:00,
2013-05-11 05:03:00,63.0,56.0,30.03,NNW,328,0.0,5.0,79,0.00,,,0.00,,2013-05-11 10:03:00,
2013-05-11 05:12:00,62.0,56.0,30.03,NNW,328,3.0,5.0,80,0.00,,,0.00,,2013-05-11 10:12:00,
2013-05-11 05:22:00,62.0,56.0,30.03,NNW,328,3.0,5.0,80,0.00,,,0.00,,2013-05-11 10:22:00,
2013-05-11 05:33:00,62.0,56.0,30.03,NNW,328,2.0,6.0,81,0.00,,,0.00,,2013-05-11 10:33:00,
2013-05-11 05:42:00,62.0,56.0,30.04,NNW,328,3.0,6.0,82,0.00,,,0.00,,2013-05-11 10:42:00,
2013-05-11 05:52:00,62.0,56.0,30.04,NNW,328,3.0,6.0,82,0.00,,,0.00,,2013-05-11 10:52:00,
2013-05-11 06:02:00,62.0,56.0,30.06,NNW,328,1.0,3.0,82,0.00,,,0.00,,2013-05-11 11:02:00,
2013-05-11 06:11:00,62.0,56.0,30.07,NNW,328,0.0,0.0,81,0.00,,,0.00,,2013-05-11 11:11:00,
2013-05-11 06:21:00,62.0,56.0,30.07,NNW,328,0.0,0.0,81,0.00,,,0.00,,2013-05-11 11:21:00,
2013-05-11 06:32:00,62.0,56.0,30.07,NNW,328,0.0,0.0,82,0.00,,,0.00,,2013-05-11 11:32:00,
2013-05-11 06:42:00,61.0,56.0,30.08,NNW,328,3.0,5.0,83,0.00,,,0.00,,2013-05-11 11:42:00,
2013-05-11 06:52:00,61.0,56.0,30.08,NNW,328,3.0,5.0,83,0.00,,,0.00,,2013-05-11 11:52:00,
2013-05-11 07:01:00,61.0,56.0,30.08,NNW,328,4.0,5.0,84,0.00,,,0.00,,2013-05-11 12:01:00,
2013-05-11 07:11:00,60.0,55.0,30.08,NNW,328,5.0,8.0,85,0.00,,,0.00,,2013-05-11 12:11:00,
2013-05-11 07:21:00,60.0,55.0,30.08,NNW,328,5.0,8.0,85,0.00,,,0.00,,2013-05-11 12:21:00,
2013-05-11 07:32:00,61.0,56.0,30.08,NNW,328,5.0,6.0,85,0.00,,,0.00,,2013-05-11 12:32:00,
2013-05-11 07:42:00,61.0,56.0,30.08,NNW,328,2.0,5.0,85,0.00,,,0.00,,2013-05-11 12:42:00,
2013-05-11 07:52:00,61.0,56.0,30.08,NNW,328,2.0,5.0,85,0.00,,,0.00,,2013-05-11 12:52:00,
2013-05-11 08:01:00,62.0,57.0,30.08,NNW,328,2.0,7.0,84,0.00,,,0.00,,2013-05-11 13:01:00,
2013-05-11 08:11:00,62.0,56.0,30.10,NNW,328,0.0,0.0,82,0.00,,,0.00,,2013-05-11 13:11:00,
2013-05-11 08:21:00,62.0,56.0,30.10,NNW,328,0.0,0.0,82,0.00,,,0.00,,2013-05-11 13:21:00,
2013-05-11 08:31:00,63.0,56.0,30.10,NNW,329,4.0,8.0,79,0.00,,,0.00,,2013-05-11 13:31:00,
2013-05-11 08:41:00,64.0,57.0,30.10,NNW,329,7.0,10.0,78,0.00,,,0.00,,2013-05-11 13:41:00,
2013-05-11 08:52:00,64.0,57.0,30.10,NNW,329,7.0,10.0,78,0.00,,,0.00,,2013-05-11 13:52:00,
2013-05-11 09:02:00,64.0,56.0,30.09,NNW,331,6.0,9.0,76,0.00,,,0.00,,2013-05-11 14:02:00,
2013-05-11 09:11:00,65.0,56.0,30.09,NNW,343,7.0,10.0,73,0.00,,,0.00,,2013-05-11 14:11:00,
2013-05-11 09:21:00,65.0,56.0,30.09,NNW,343,7.0,10.0,73,0.00,,,0.00,,2013-05-11 14:21:00,
2013-05-11 09:32:00,66.0,56.0,30.09,North,350,5.0,10.0,70,0.00,,,0.00,,2013-05-11 14:32:00,
2013-05-11 09:41:00,67.0,55.0,30.09,North,5,6.0,12.0,65,0.00,,,0.00,,2013-05-11 14:41:00,
2013-05-11 09:52:00,67.0,55.0,30.09,North,5,6.0,12.0,65,0.00,,,0.00,,2013-05-11 14:52:00,
2013-05-11 10:01:00,67.0,55.0,30.09,NW,325,7.0,12.0,65,0.00,,,0.00,,2013-05-11 15:01:00,
2013-05-11 10:11:00,69.0,55.0,30.08,NNW,334,7.0,13.0,61,0.00,,,0.00,,2013-05-11 15:11:00,
2013-05-11 10:21:00,69.0,55.0,30.08,NNW,334,7.0,13.0,61,0.00,,,0.00,,2013-05-11 15:21:00,
2013-05-11 10:32:00,69.0,55.0,30.08,NNE,13,6.0,16.0,60,0.00,,,0.00,,2013-05-11 15:32:00,
2013-05-11 10:43:00,70.0,55.0,30.09,NNW,344,8.0,14.0,58,0.00,,,0.00,,2013-05-11 15:43:00,
2013-05-11 10:53:00,70.0,55.0,30.09,NNW,344,8.0,14.0,58,0.00,,,0.00,,2013-05-11 15:53:00,
2013-05-11 11:02:00,71.0,54.0,30.09,North,353,11.0,22.0,56,0.00,,,0.00,,2013-05-11 16:02:00,
2013-05-11 11:12:00,72.0,53.0,30.09,North,11,7.0,16.0,52,0.00,,,0.00,,2013-05-11 16:12:00,
2013-05-11 11:22:00,72.0,53.0,30.09,North,11,7.0,16.0,52,0.00,,,0.00,,2013-05-11 16:22:00,
2013-05-11 11:33:00,72.0,52.0,30.09,NNW,345,11.0,21.0,50,0.00,,,0.00,,2013-05-11 16:33:00,
2013-05-11 11:42:00,73.0,53.0,30.09,North,5,13.0,20.0,49,0.00,,,0.00,,2013-05-11 16:42:00,
2013-05-11 11:53:00,73.0,53.0,30.09,North,5,13.0,20.0,49,0.00,,,0.00,,2013-05-11 16:53:00,
2013-05-11 12:02:00,73.0,51.0,30.09,NNE,17,14.0,22.0,46,0.00,,,0.00,,2013-05-11 17:02:00,
2013-05-11 12:12:00,74.0,51.0,30.10,NNE,13,12.0,20.0,45,0.00,,,0.00,,2013-05-11 17:12:00,
2013-05-11 12:22:00,74.0,51.0,30.10,NNE,13,12.0,20.0,45,0.00,,,0.00,,2013-05-11 17:22:00,
2013-05-11 12:32:00,74.0,52.0,30.09,North,358,9.0,15.0,46,0.00,,,0.00,,2013-05-11 17:32:00,
2013-05-11 12:41:00,75.0,53.0,30.09,NNW,336,6.0,18.0,46,0.00,,,0.00,,2013-05-11 17:41:00,
2013-05-11 12:52:00,75.0,53.0,30.09,NNW,336,6.0,18.0,46,0.00,,,0.00,,2013-05-11 17:52:00,
2013-05-11 13:01:00,76.0,53.0,30.09,North,1,9.0,15.0,45,0.00,,,0.00,,2013-05-11 18:01:00,
2013-05-11 13:11:00,75.0,51.0,30.10,NNE,21,7.0,18.0,43,0.00,,,0.00,,2013-05-11 18:11:00,
2013-05-11 13:21:00,75.0,51.0,30.10,NNE,21,7.0,18.0,43,0.00,,,0.00,,2013-05-11 18:21:00,
2013-05-11 13:32:00,76.0,53.0,30.10,NNW,333,8.0,21.0,45,0.00,,,0.00,,2013-05-11 18:32:00,
2013-05-11 13:41:00,76.0,52.0,30.10,NNW,341,7.0,13.0,44,0.00,,,0.00,,2013-05-11 18:41:00,
2013-05-11 13:52:00,76.0,52.0,30.10,NNW,341,7.0,13.0,44,0.00,,,0.00,,2013-05-11 18:52:00,
2013-05-11 14:02:00,77.0,52.0,30.09,NE,34,9.0,18.0,42,0.00,,,0.00,,2013-05-11 19:02:00,
2013-05-11 14:11:00,77.0,51.0,30.09,NNW,343,9.0,16.0,41,0.00,,,0.00,,2013-05-11 19:11:00,
2013-05-11 14:21:00,77.0,51.0,30.09,NNW,343,9.0,16.0,41,0.00,,,0.00,,2013-05-11 19:21:00,
2013-05-11 14:32:00,78.0,53.0,30.09,NNE,21,9.0,14.0,42,0.00,,,0.00,,2013-05-11 19:32:00,
2013-05-11 14:41:00,78.0,52.0,30.09,NE,39,8.0,16.0,40,0.00,,,0.00,,2013-05-11 19:41:00,
2013-05-11 14:52:00,78.0,52.0,30.09,NE,39,8.0,16.0,40,0.00,,,0.00,,2013-05-11 19:52:00,
2013-05-11 15:01:00,78.0,50.0,30.08,North,3,13.0,18.0,38,0.00,,,0.00,,2013-05-11 20:01:00,
2013-05-11 15:12:00,78.0,51.0,30.08,North,10,8.0,14.0,39,0.00,,,0.00,,2013-05-11 20:12:00,
2013-05-11 15:22:00,78.0,51.0,30.08,North,10,8.0,14.0,39,0.00,,,0.00,,2013-05-11 20:22:00,
2013-05-11 15:32:00,79.0,51.0,30.08,NNW,337,10.0,18.0,38,0.00,,,0.00,,2013-05-11 20:32:00,
2013-05-11 15:42:00,78.0,50.0,30.07,NE,56,7.0,13.0,38,0.00,,,0.00,,2013-05-11 20:42:00,
2013-05-11 15:52:00,78.0,50.0,30.07,NE,56,7.0,13.0,38,0.00,,,0.00,,2013-05-11 20:52:00,
2013-05-11 16:02:00,79.0,51.0,30.07,NNE,32,5.0,16.0,38,0.00,,,0.00,,2013-05-11 21:02:00,
2013-05-11 16:11:00,79.0,51.0,30.06,NNW,335,7.0,14.0,38,0.00,,,0.00,,2013-05-11 21:11:00,
2013-05-11 16:21:00,79.0,51.0,30.06,NNW,335,7.0,14.0,38,0.00,,,0.00,,2013-05-11 21:21:00,
2013-05-11 16:33:00,79.0,51.0,30.06,NNW,336,9.0,15.0,38,0.00,,,0.00,,2013-05-11 21:33:00,
2013-05-11 16:43:00,79.0,51.0,30.06,NNW,336,9.0,15.0,38,0.00,,,0.00,,2013-05-11 21:43:00,
2013-05-11 16:53:00,79.0,50.0,30.06,NNW,343,12.0,20.0,37,0.00,,,0.00,,2013-05-11 21:53:00,
2013-05-11 17:02:00,79.0,51.0,30.06,NNW,337,9.0,14.0,38,0.00,,,0.00,,2013-05-11 22:02:00,
2013-05-11 17:13:00,80.0,51.0,30.05,North,349,6.0,10.0,37,0.00,,,0.00,,2013-05-11 22:13:00,
2013-05-11 17:23:00,80.0,51.0,30.05,North,349,6.0,10.0,37,0.00,,,0.00,,2013-05-11 22:23:00,
2013-05-11 17:33:00,80.0,51.0,30.05,NNE,21,7.0,13.0,36,0.00,,,0.00,,2013-05-11 22:33:00,
2013-05-11 17:42:00,80.0,51.0,30.05,NNE,33,7.0,22.0,37,0.00,,,0.00,,2013-05-11 22:42:00,
2013-05-11 17:52:00,80.0,51.0,30.05,NNE,33,7.0,22.0,37,0.00,,,0.00,,2013-05-11 22:52:00,
2013-05-11 18:02:00,79.0,50.0,30.05,NNE,15,8.0,12.0,36,0.00,,,0.00,,2013-05-11 23:02:00,
2013-05-11 18:12:00,80.0,51.0,30.04,North,11,7.0,12.0,37,0.00,,,0.00,,2013-05-11 23:12:00,
2013-05-11 18:22:00,80.0,51.0,30.04,North,11,7.0,12.0,37,0.00,,,0.00,,2013-05-11 23:22:00,
2013-05-11 18:32:00,79.0,50.0,30.04,NNE,16,5.0,13.0,37,0.00,,,0.00,,2013-05-11 23:32:00,
2013-05-11 18:42:00,79.0,50.0,30.04,NE,39,6.0,13.0,37,0.00,,,0.00,,2013-05-11 23:42:00,
2013-05-11 18:52:00,79.0,50.0,30.04,NE,39,6.0,13.0,37,0.00,,,0.00,,2013-05-11 23:52:00,
2013-05-11 19:01:00,79.0,50.0,30.04,NE,34,9.0,16.0,36,0.00,,,0.00,,2013-05-12 00:01:00,
2013-05-11 19:11:00,79.0,50.0,30.04,NE,34,9.0,16.0,36,0.00,,,0.00,,2013-05-12 00:11:00,
2013-05-11 19:21:00,79.0,50.0,30.04,North,0,6.0,13.0,37,0.00,,,0.00,,2013-05-12 00:21:00,
2013-05-11 19:32:00,79.0,50.0,30.05,NNW,345,3.0,9.0,37,0.00,,,0.00,,2013-05-12 00:32:00,
2013-05-11 19:42:00,78.0,48.0,30.05,North,2,7.0,10.0,35,0.00,,,0.00,,2013-05-12 00:42:00,
2013-05-11 19:52:00,78.0,48.0,30.05,North,2,7.0,10.0,35,0.00,,,0.00,,2013-05-12 00:52:00,
2013-05-11 20:01:00,78.0,49.0,30.05,NNE,24,2.0,7.0,36,0.00,,,0.00,,2013-05-12 01:01:00,
2013-05-11 20:11:00,77.0,48.0,30.06,NNE,13,3.0,8.0,36,0.00,,,0.00,,2013-05-12 01:11:00,
2013-05-11 20:21:00,77.0,48.0,30.06,NNE,13,3.0,8.0,36,0.00,,,0.00,,2013-05-12 01:21:00,
2013-05-11 20:32:00,76.0,48.0,30.07,NNE,13,1.0,5.0,37,0.00,,,0.00,,2013-05-12 01:32:00,
2013-05-11 20:41:00,75.0,48.0,30.07,NNE,13,1.0,2.0,38,0.00,,,0.00,,2013-05-12 01:41:00,
2013-05-11 20:52:00,75.0,48.0,30.07,NNE,13,1.0,2.0,38,0.00,,,0.00,,2013-05-12 01:52:00,
2013-05-11 21:01:00,74.0,48.0,30.08,NNE,13,0.0,0.0,40,0.00,,,0.00,,2013-05-12 02:01:00,
2013-05-11 21:11:00,73.0,49.0,30.08,NNE,13,0.0,0.0,43,0.00,,,0.00,,2013-05-12 02:11:00,
2013-05-11 21:22:00,73.0,49.0,30.08,NNE,13,0.0,0.0,43,0.00,,,0.00,,2013-05-12 02:22:00,
2013-05-11 21:31:00,72.0,50.0,30.09,NNE,13,0.0,0.0,46,0.00,,,0.00,,2013-05-12 02:31:00,
2013-05-11 21:42:00,70.0,51.0,30.09,NNE,13,0.0,0.0,51,0.00,,,0.00,,2013-05-12 02:42:00,
2013-05-11 21:52:00,70.0,51.0,30.09,NNE,13,0.0,0.0,51,0.00,,,0.00,,2013-05-12 02:52:00,
2013-05-11 22:01:00,69.0,51.0,30.10,NNE,13,0.0,0.0,53,0.00,,,0.00,,2013-05-12 03:01:00,
2013-05-11 22:11:00,68.0,52.0,30.10,NNE,13,0.0,0.0,56,0.00,,,0.00,,2013-05-12 03:11:00,
2013-05-11 22:22:00,68.0,52.0,30.10,NNE,13,0.0,0.0,56,0.00,,,0.00,,2013-05-12 03:22:00,
2013-05-11 22:32:00,67.0,52.0,30.11,NNE,13,0.0,0.0,58,0.00,,,0.00,,2013-05-12 03:32:00,
2013-05-11 22:42:00,66.0,52.0,30.11,NNE,13,0.0,0.0,60,0.00,,,0.00,,2013-05-12 03:42:00,
2013-05-11 22:53:00,66.0,52.0,30.11,NNE,13,0.0,0.0,60,0.00,,,0.00,,2013-05-12 03:53:00,
2013-05-11 23:02:00,-999.0,-99.9,30.12,NNE,13,0.0,0.0,61,0.00,,,0.00,,2013-05-12 04:02:00,
2013-05-11 23:12:00,65.0,51.0,30.12,NNE,13,0.0,0.0,61,0.00,,,0.00,,2013-05-12 04:12:00,
2013-05-11 23:22:00,65.0,52.0,30.13,NNE,13,0.0,0.0,63,0.00,,,0.00,,2013-05-12 04:22:00,
2013-05-11 23:33:00,65.0,52.0,30.13,NNE,13,0.0,0.0,63,0.00,,,0.00,,2013-05-12 04:33:00,
2013-05-11 23:43:00,64.0,52.0,30.13,NNE,13,0.0,0.0,66,0.00,,,0.00,,2013-05-12 04:43:00,
2013-05-11 23:52:00,64.0,52.0,30.13,NNE,13,0.0,0.0,66,0.00,,,0.00,,2013-05-12 04:52:00,